Union Springs, Alabama
Current Conditions -  °F | °C
As of 10:03 PM on Sunday 23 Nov 2014 (Local Time) from KTOI Reporting Station
Overcast Overcast  
Wind Chill: 65°   Ceiling: 1500
Heat Index: 65°   Visibility: 10mi
Dew Point: 62°   Wind: 10mph
Humidity: 90%   Direction: 210°SSW
Pressure: 29.78"   Gusts: 20mph
Location:  32.14°N, 85.71°W
Report Text: KTOI 240403Z AUTO 21009G17KT 10SM OVC015 18/17 A2978 RMK AO2 T01830167
Loading
Personal Weather Stations






























Interactive Weather Map New forecast layout! Learn more

10-Day Weather Forecast

Advertisements
Track Severe Weather on mobile